Time;durP1;ratioP1;P1;durP2;ratioP2;P2;SDS_P1;SDS_P2;PMS_P1;PMS_P2;Temp;Humidity;BMP_temperature;BMP_pressure;BME280_temperature;BME280_humidity;BME280_pressure;Samples;Min_cycle;Max_cycle;Signal;HPM_P1;HPM_P2
2023/05/05 00:01:17;;;;;;;20.10;12.35;;;10.40;99.90;;;;;;2615578;46;20005;31
2023/05/05 00:03:53;;;;;;;17.98;12.20;;;10.40;99.90;;;;;;2602171;54;25041;31
2023/05/05 00:06:30;;;;;;;17.35;11.90;;;10.40;99.90;;;;;;2618698;46;20454;31
2023/05/05 00:09:06;;;;;;;20.52;11.82;;;10.30;99.90;;;;;;2603235;54;20779;31
2023/05/05 00:11:53;;;;;;;15.80;10.65;;;10.30;99.90;;;;;;2602962;54;20042;31
2023/05/05 00:14:33;;;;;;;16.30;11.48;;;10.30;99.90;;;;;;2603217;54;20886;31
2023/05/05 00:17:10;;;;;;;19.13;12.00;;;10.20;99.90;;;;;;2603010;54;20005;31
2023/05/05 00:19:49;;;;;;;16.77;11.10;;;10.20;99.90;;;;;;2603023;54;20066;31
2023/05/05 00:22:26;;;;;;;15.88;10.38;;;10.20;99.90;;;;;;2603163;54;20026;31
2023/05/05 00:25:06;;;;;;;13.60;9.20;;;10.10;99.90;;;;;;2603059;54;20034;31
2023/05/05 00:27:50;;;;;;;18.38;11.45;;;10.10;99.90;;;;;;2603050;54;20851;31
2023/05/05 00:30:26;;;;;;;19.63;10.75;;;10.10;99.90;;;;;;2621085;46;20097;31
2023/05/05 00:33:03;;;;;;;14.65;9.50;;;10.00;99.90;;;;;;2602844;54;20920;31
2023/05/05 00:35:41;;;;;;;13.80;10.00;;;10.00;99.90;;;;;;2603155;54;20042;31
2023/05/05 00:38:22;;;;;;;13.27;8.93;;;10.10;99.90;;;;;;2603296;54;20437;31
2023/05/05 00:41:08;;;;;;;14.70;9.57;;;10.10;99.90;;;;;;2602901;54;20041;31
2023/05/05 00:43:50;;;;;;;14.53;9.77;;;10.10;99.90;;;;;;2621480;46;20033;31
2023/05/05 00:46:26;;;;;;;12.90;8.45;;;10.10;99.90;;;;;;2602768;54;20101;31
2023/05/05 00:49:03;;;;;;;16.88;8.93;;;10.10;99.90;;;;;;2618605;39;21464;31
2023/05/05 00:51:39;;;;;;;14.35;8.43;;;10.10;99.90;;;;;;2602870;54;20031;31
2023/05/05 00:54:15;;;;;;;;;;;10.10;99.90;;;;;;2603341;54;20030;31
2023/05/05 00:56:51;;;;;;;13.47;8.37;;;10.00;99.90;;;;;;2602907;54;20673;31
2023/05/05 00:59:30;;;;;;;;;;;10.00;99.90;;;;;;2602569;54;20799;31
2023/05/05 01:02:07;;;;;;;11.13;7.13;;;10.00;99.90;;;;;;2602368;54;21439;31
2023/05/05 01:04:43;;;;;;;12.90;7.28;;;9.90;99.90;;;;;;2649685;39;21375;31
2023/05/05 01:07:25;;;;;;;15.13;8.55;;;9.90;99.90;;;;;;2602816;54;20763;31
2023/05/05 01:10:06;;;;;;;14.90;9.20;;;9.90;99.90;;;;;;2621803;46;21426;31
2023/05/05 01:12:56;;;;;;;12.80;8.50;;;9.90;99.90;;;;;;2602838;54;20053;31
2023/05/05 01:15:36;;;;;;;15.77;8.65;;;9.80;99.90;;;;;;2603028;54;20748;31
2023/05/05 01:18:13;;;;;;;12.45;8.50;;;9.80;99.90;;;;;;2602944;54;20045;31
2023/05/05 01:20:51;;;;;;;16.67;9.15;;;9.80;99.90;;;;;;2602787;54;20023;31
2023/05/05 01:23:39;;;;;;;13.55;9.10;;;9.80;99.90;;;;;;2603041;54;20030;31
2023/05/05 01:26:47;;;;;;;16.13;9.43;;;9.80;99.90;;;;;;2602724;54;20838;31
2023/05/05 01:29:45;;;;;;;14.00;8.60;;;9.80;99.90;;;;;;2603157;54;20013;31
2023/05/05 01:32:28;;;;;;;15.20;9.50;;;9.70;99.90;;;;;;2602801;54;20038;31
2023/05/05 01:35:11;;;;;;;14.32;9.13;;;9.70;99.90;;;;;;2602747;54;20451;31
2023/05/05 01:37:49;;;;;;;14.80;8.40;;;9.80;99.90;;;;;;2603017;54;20044;31
2023/05/05 01:40:28;;;;;;;12.87;8.60;;;9.70;99.90;;;;;;2602707;54;20920;31
2023/05/05 01:43:04;;;;;;;16.50;9.10;;;9.70;99.90;;;;;;2602918;54;20027;31
2023/05/05 01:45:42;;;;;;;15.43;9.98;;;9.70;99.90;;;;;;2621320;46;20462;31
2023/05/05 01:48:21;;;;;;;13.80;9.45;;;9.70;99.90;;;;;;2602693;54;20489;31
2023/05/05 01:50:56;;;;;;;14.18;8.68;;;9.70;99.90;;;;;;2601974;54;21004;31
2023/05/05 01:53:31;;;;;;;13.40;9.27;;;9.60;99.90;;;;;;2602191;54;20026;31
2023/05/05 01:56:11;;;;;;;15.75;9.05;;;9.70;99.90;;;;;;2618209;39;20432;31
2023/05/05 01:58:46;;;;;;;16.85;9.07;;;9.60;99.90;;;;;;2621064;46;20409;31
2023/05/05 02:01:24;;;;;;;13.73;9.23;;;9.60;99.90;;;;;;2602771;54;21146;31
2023/05/05 02:04:08;;;;;;;19.05;12.70;;;9.70;99.90;;;;;;2628563;39;20408;31
2023/05/05 02:06:45;;;;;;;24.70;16.35;;;9.60;99.90;;;;;;2621184;47;20054;31
2023/05/05 02:09:21;;;;;;;23.20;15.30;;;9.60;99.90;;;;;;2602888;54;20113;31
2023/05/05 02:11:57;;;;;;;17.65;10.85;;;9.60;99.90;;;;;;2602694;54;20047;31
2023/05/05 02:14:33;;;;;;;20.30;12.63;;;9.60;99.90;;;;;;2628521;39;20341;31
2023/05/05 02:17:11;;;;;;;25.40;16.93;;;9.60;99.90;;;;;;2602726;54;21465;31
2023/05/05 02:19:52;;;;;;;20.02;12.18;;;9.50;99.90;;;;;;2603370;54;20061;31
2023/05/05 02:22:30;;;;;;;22.27;14.00;;;9.60;99.90;;;;;;2603658;54;21369;31
2023/05/05 02:25:07;;;;;;;20.15;12.07;;;9.50;99.90;;;;;;2603574;54;20034;31
2023/05/05 02:27:43;;;;;;;14.68;10.25;;;9.50;99.90;;;;;;2602683;54;20905;31
2023/05/05 02:30:22;;;;;;;13.70;10.40;;;9.50;99.90;;;;;;2603652;54;20812;31
2023/05/05 02:33:01;;;;;;;12.13;9.75;;;9.50;99.90;;;;;;2602614;54;20868;31
2023/05/05 02:35:43;;;;;;;17.08;9.65;;;9.50;99.90;;;;;;2603384;54;20049;31
2023/05/05 02:38:21;;;;;;;15.97;9.67;;;9.40;99.90;;;;;;2621747;46;20886;31
2023/05/05 02:41:00;;;;;;;15.10;10.07;;;9.40;99.90;;;;;;2603505;54;20022;31
2023/05/05 02:43:37;;;;;;;12.30;9.00;;;9.30;99.90;;;;;;2612213;46;20260;31
2023/05/05 02:46:17;;;;;;;20.38;10.82;;;9.30;99.90;;;;;;2602573;54;20061;31
2023/05/05 02:48:58;;;;;;;20.33;12.65;;;9.30;99.90;;;;;;2621764;46;20837;31
2023/05/05 02:51:39;;;;;;;19.52;11.30;;;9.30;99.90;;;;;;2603419;54;20842;31
2023/05/05 02:54:23;;;;;;;18.77;11.37;;;9.20;99.90;;;;;;2603330;54;20045;31
2023/05/05 02:57:03;;;;;;;14.40;9.20;;;9.20;99.90;;;;;;2621722;46;20129;31
2023/05/05 02:59:46;;;;;;;13.70;9.60;;;9.20;99.90;;;;;;2621016;46;20897;31
2023/05/05 03:02:29;;;;;;;14.30;9.43;;;9.10;99.90;;;;;;2603475;54;20042;31
2023/05/05 03:05:08;;;;;;;16.00;9.85;;;9.10;99.90;;;;;;2603530;54;20026;31
2023/05/05 03:07:48;;;;;;;17.40;9.70;;;9.10;99.90;;;;;;2603376;54;20028;31
2023/05/05 03:10:35;;;;;;;15.45;9.20;;;9.10;99.90;;;;;;2621898;46;20033;31
2023/05/05 03:13:12;;;;;;;15.53;9.87;;;9.10;99.90;;;;;;2603344;54;20748;31
2023/05/05 03:15:57;;;;;;;15.10;9.55;;;9.10;99.90;;;;;;2603413;54;20196;31
2023/05/05 03:18:37;;;;;;;18.15;10.45;;;9.10;99.90;;;;;;2608180;39;20337;31
2023/05/05 03:21:16;;;;;;;17.58;9.50;;;9.10;99.90;;;;;;2603260;54;20923;31
2023/05/05 03:23:52;;;;;;;15.45;8.98;;;9.00;99.90;;;;;;2603285;54;20030;31
2023/05/05 03:26:32;;;;;;;14.82;8.90;;;9.10;99.90;;;;;;2621600;46;21475;31
2023/05/05 03:29:11;;;;;;;17.10;10.10;;;9.00;99.90;;;;;;2602502;54;20022;31
2023/05/05 03:31:54;;;;;;;20.17;10.83;;;9.00;99.90;;;;;;2603269;54;20885;31
2023/05/05 03:34:32;;;;;;;19.23;10.57;;;9.00;99.90;;;;;;2621689;46;20034;31
2023/05/05 03:37:10;;;;;;;17.42;10.57;;;9.00;99.90;;;;;;2603209;54;20841;31
2023/05/05 03:39:51;;;;;;;13.07;10.30;;;9.00;99.90;;;;;;2603201;54;20898;31
2023/05/05 03:42:33;;;;;;;14.50;9.27;;;9.00;99.90;;;;;;2603075;54;20828;31
2023/05/05 03:45:11;;;;;;;14.45;9.13;;;9.00;99.90;;;;;;2603283;54;20270;31
2023/05/05 03:47:46;;;;;;;22.38;10.73;;;9.00;99.90;;;;;;2621722;46;20038;31
2023/05/05 03:50:24;;;;;;;14.90;10.70;;;8.90;99.90;;;;;;2603232;54;20038;31
2023/05/05 03:53:01;;;;;;;13.85;9.55;;;9.00;99.90;;;;;;2621122;46;20841;31
2023/05/05 03:55:38;;;;;;;21.13;10.47;;;9.00;99.90;;;;;;2603046;54;20058;31
2023/05/05 03:58:17;;;;;;;17.27;10.23;;;8.90;99.90;;;;;;2603166;54;20030;31
2023/05/05 04:00:53;;;;;;;16.58;9.80;;;8.90;99.90;;;;;;2621870;46;20918;31
2023/05/05 04:03:31;;;;;;;;;;;9.00;99.90;;;;;;2621937;46;22405;31
2023/05/05 04:06:10;;;;;;;16.40;10.27;;;8.90;99.90;;;;;;2603314;54;20013;31
2023/05/05 04:08:47;;;;;;;15.98;10.20;;;8.90;99.90;;;;;;2603105;54;20042;31
2023/05/05 04:11:26;;;;;;;14.25;11.02;;;8.90;99.90;;;;;;2603230;54;20009;31
2023/05/05 04:14:03;;;;;;;17.33;11.63;;;9.00;99.90;;;;;;2602959;54;20879;31
2023/05/05 04:16:47;;;;;;;18.70;11.52;;;9.00;99.90;;;;;;2603271;54;20023;31
2023/05/05 04:19:26;;;;;;;16.95;11.50;;;9.00;99.90;;;;;;2603369;54;20030;31
2023/05/05 04:22:04;;;;;;;16.60;10.85;;;8.90;99.90;;;;;;2603074;54;20050;31
2023/05/05 04:24:48;;;;;;;20.48;11.98;;;9.00;99.90;;;;;;2603238;54;20032;31
2023/05/05 04:27:28;;;;;;;15.68;11.57;;;9.00;99.90;;;;;;2603068;54;20046;31
2023/05/05 04:30:11;;;;;;;20.53;12.60;;;9.00;99.90;;;;;;2603273;54;19934;31
2023/05/05 04:32:54;;;;;;;16.50;11.70;;;9.00;99.90;;;;;;2602335;54;20030;31
2023/05/05 04:35:32;;;;;;;18.73;11.63;;;9.00;99.90;;;;;;2602421;54;20827;31
2023/05/05 04:38:09;;;;;;;;;;;9.10;99.90;;;;;;2602978;54;20803;31
2023/05/05 04:40:46;;;;;;;15.80;10.87;;;9.10;99.90;;;;;;2603324;54;20096;31
2023/05/05 04:46:11;;;;;;;18.65;11.90;;;9.30;99.90;;;;;;2603180;54;20049;31
2023/05/05 04:48:54;;;;;;;21.00;11.77;;;9.60;99.90;;;;;;2603004;54;21473;31
2023/05/05 04:51:30;;;;;;;17.67;11.30;;;9.70;99.90;;;;;;2621653;46;20121;31
2023/05/05 04:54:08;;;;;;;15.07;10.48;;;10.10;99.90;;;;;;2603155;54;20922;31
2023/05/05 04:56:43;;;;;;;18.35;12.25;;;10.50;99.90;;;;;;2602818;54;20108;31
2023/05/05 04:59:22;;;;;;;16.67;11.40;;;10.90;99.90;;;;;;2602908;54;20881;31
2023/05/05 05:02:00;;;;;;;22.08;10.80;;;11.20;99.90;;;;;;2602892;54;20086;31
2023/05/05 05:04:41;;;;;;;16.30;11.55;;;11.60;99.90;;;;;;2602935;54;20037;31
2023/05/05 05:07:21;;;;;;;19.88;12.05;;;12.00;99.90;;;;;;2602893;54;20891;31
2023/05/05 05:09:58;;;;;;;15.02;11.73;;;12.30;99.90;;;;;;2602924;54;20045;31
2023/05/05 05:12:34;;;;;;;;;;;12.40;99.90;;;;;;2621015;46;20105;31
2023/05/05 05:15:13;;;;;;;20.35;11.10;;;12.60;99.90;;;;;;2602950;54;19934;31
2023/05/05 05:17:50;;;;;;;14.32;11.10;;;12.70;99.90;;;;;;2602934;54;20027;31
2023/05/05 05:20:31;;;;;;;19.42;12.38;;;12.90;99.90;;;;;;2602719;54;20513;31
2023/05/05 05:23:12;;;;;;;13.27;10.93;;;13.00;99.90;;;;;;2621579;46;20026;31
2023/05/05 05:25:53;;;;;;;19.10;11.68;;;13.10;99.90;;;;;;2602850;54;20022;31
2023/05/05 06:05:36;;;;;;;17.48;10.90;;;14.10;99.90;;;;;;2601192;54;20026;31
2023/05/05 06:08:36;;;;;;;17.45;11.60;;;14.20;99.90;;;;;;2602638;54;20855;31
2023/05/05 06:11:26;;;;;;;17.85;10.88;;;14.50;99.90;;;;;;2602643;54;20884;31
2023/05/05 06:14:50;;;;;;;18.50;11.65;;;14.90;99.90;;;;;;2602681;54;20943;31
2023/05/05 06:17:29;;;;;;;21.75;10.88;;;15.40;99.90;;;;;;2608368;39;21400;31
2023/05/05 06:20:05;;;;;;;23.00;12.15;;;15.70;99.90;;;;;;2602635;54;20097;31
2023/05/05 06:22:42;;;;;;;19.42;10.05;;;15.90;99.90;;;;;;2602806;54;20030;31
2023/05/05 06:25:21;;;;;;;16.83;11.20;;;16.20;99.90;;;;;;2602502;54;20477;31
2023/05/05 06:28:07;;;;;;;16.15;11.68;;;16.50;99.90;;;;;;2602683;54;20249;31
2023/05/05 06:31:25;;;;;;;16.30;11.80;;;16.80;99.90;;;;;;2602504;54;20030;31
2023/05/05 06:34:26;;;;;;;18.98;11.43;;;17.20;99.90;;;;;;2620846;47;20026;31
2023/05/05 06:37:03;;;;;;;14.52;10.23;;;17.60;99.90;;;;;;2602520;54;20840;31
2023/05/05 06:43:17;;;;;;;26.50;10.45;;;18.00;99.90;;;;;;2602729;54;20919;31
2023/05/05 06:49:35;;;;;;;14.93;9.40;;;18.10;99.90;;;;;;2603072;54;20848;31
2023/05/05 06:52:23;;;;;;;13.38;10.07;;;18.20;99.90;;;;;;2601925;54;20782;31
2023/05/05 06:59:08;;;;;;;15.70;9.40;;;18.20;99.90;;;;;;2602605;54;20042;31
2023/05/05 07:01:44;;;;;;;13.43;9.88;;;18.20;99.90;;;;;;2602850;54;20861;31
2023/05/05 07:04:25;;;;;;;13.38;9.63;;;18.40;99.90;;;;;;2603332;54;21243;31
2023/05/05 07:07:08;;;;;;;17.05;9.82;;;18.60;99.90;;;;;;2621532;46;20141;31
2023/05/05 07:09:52;;;;;;;18.48;9.25;;;19.00;99.90;;;;;;2603284;54;19934;31
2023/05/05 07:12:33;;;;;;;12.90;9.30;;;19.30;99.90;;;;;;2602176;54;20026;31
2023/05/05 07:18:15;;;;;;;17.13;9.20;;;19.80;99.90;;;;;;2601951;54;20022;31
2023/05/05 07:20:55;;;;;;;20.48;11.65;;;20.00;99.90;;;;;;2603156;54;20756;31
2023/05/05 07:33:01;;;;;;;14.20;10.10;;;20.60;99.90;;;;;;2600736;54;20901;31
2023/05/05 07:35:54;;;;;;;14.70;10.03;;;20.70;99.90;;;;;;2602355;54;21006;31
2023/05/05 07:38:35;;;;;;;12.82;7.20;;;20.90;99.90;;;;;;2603317;54;21213;31
2023/05/05 07:41:33;;;;;;;12.30;7.93;;;21.10;99.30;;;;;;2603343;54;20829;31
2023/05/05 08:18:26;;;;;;;10.30;6.38;;;22.80;91.80;;;;;;2622043;46;20044;31
2023/05/05 08:30:16;;;;;;;7.53;5.57;;;23.10;89.60;;;;;;2602436;54;21103;31
2023/05/05 08:39:19;;;;;;;10.38;5.18;;;23.40;88.40;;;;;;2601435;54;20011;31
2023/05/05 08:58:06;;;;;;;6.90;4.28;;;23.70;81.50;;;;;;2611035;54;20399;31
2023/05/05 09:06:58;;;;;;;6.40;3.37;;;23.80;79.00;;;;;;2602940;54;20046;31
2023/05/05 09:09:38;;;;;;;6.45;3.00;;;23.70;79.10;;;;;;2602923;54;20851;31
2023/05/05 09:12:16;;;;;;;6.05;3.53;;;23.80;77.10;;;;;;2602285;54;20066;31
2023/05/05 09:15:02;;;;;;;5.57;2.85;;;23.60;75.70;;;;;;2602901;54;20018;31
2023/05/05 09:17:39;;;;;;;5.82;2.40;;;23.60;75.30;;;;;;2603075;54;20948;31
2023/05/05 09:20:27;;;;;;;10.30;3.30;;;23.50;74.00;;;;;;2621606;46;20072;31
2023/05/05 09:23:10;;;;;;;6.57;3.10;;;23.50;74.20;;;;;;2603094;54;20772;31
2023/05/05 09:25:56;;;;;;;5.05;3.25;;;23.50;75.40;;;;;;2601800;54;20773;31
2023/05/05 09:34:44;;;;;;;7.63;2.92;;;23.40;70.90;;;;;;2601753;54;20027;31
2023/05/05 09:37:30;;;;;;;4.20;2.85;;;23.40;72.10;;;;;;2602200;54;20042;31
2023/05/05 09:40:09;;;;;;;5.10;2.60;;;23.30;71.10;;;;;;2602260;54;20108;31
2023/05/05 09:42:45;;;;;;;4.57;2.80;;;23.30;73.40;;;;;;2621274;46;20114;31
2023/05/05 09:45:30;;;;;;;5.13;3.15;;;23.40;72.20;;;;;;2603048;54;20052;31
2023/05/05 09:48:07;;;;;;;4.10;3.00;;;23.40;70.40;;;;;;2602833;54;19942;31
2023/05/05 09:50:48;;;;;;;5.20;3.10;;;23.40;74.40;;;;;;2602814;54;20049;31
2023/05/05 09:53:23;;;;;;;4.10;3.03;;;23.60;70.70;;;;;;2602753;54;20136;31
2023/05/05 09:56:07;;;;;;;6.20;2.57;;;23.60;72.30;;;;;;2602847;54;20054;31
2023/05/05 09:58:43;;;;;;;4.72;2.80;;;23.80;70.90;;;;;;2602743;54;20026;31
2023/05/05 10:01:26;;;;;;;9.73;3.00;;;24.00;70.90;;;;;;2602606;54;20741;31
2023/05/05 10:04:04;;;;;;;6.13;2.60;;;24.00;69.70;;;;;;2608000;46;20030;31
2023/05/05 10:06:51;;;;;;;5.30;2.60;;;23.90;68.70;;;;;;2602707;54;20253;31
2023/05/05 10:09:30;;;;;;;7.80;2.72;;;23.80;68.70;;;;;;2602982;54;20046;31
2023/05/05 10:12:07;;;;;;;14.23;2.30;;;23.80;68.50;;;;;;2621384;47;20054;31
2023/05/05 10:14:43;;;;;;;3.95;2.45;;;23.90;70.30;;;;;;2621471;47;20042;31
2023/05/05 10:17:22;;;;;;;4.20;2.45;;;24.10;68.80;;;;;;2602758;54;20127;31
2023/05/05 10:20:03;;;;;;;5.97;2.30;;;24.10;68.30;;;;;;2602926;54;21566;31
2023/05/05 10:22:41;;;;;;;5.93;2.50;;;24.10;67.70;;;;;;2621049;47;20850;31
2023/05/05 10:25:17;;;;;;;4.27;3.00;;;24.10;69.20;;;;;;2602835;54;20027;31
2023/05/05 10:27:56;;;;;;;6.35;2.25;;;24.00;67.80;;;;;;2618743;47;20863;31
2023/05/05 10:30:33;;;;;;;6.45;2.45;;;23.90;66.60;;;;;;2602692;54;20041;31
2023/05/05 10:33:16;;;;;;;6.85;2.42;;;23.80;67.10;;;;;;2649318;39;21483;31
2023/05/05 10:36:06;;;;;;;;;;;23.80;68.70;;;;;;2603067;54;20073;31
2023/05/05 10:38:47;;;;;;;3.85;2.30;;;23.70;69.40;;;;;;2603459;54;19960;31
2023/05/05 10:41:25;;;;;;;8.43;2.40;;;23.90;69.30;;;;;;2602763;54;20281;31
2023/05/05 10:44:01;;;;;;;4.25;2.50;;;23.90;67.50;;;;;;2603497;54;20101;31
2023/05/05 10:46:43;;;;;;;4.37;2.63;;;23.90;67.20;;;;;;2603435;54;20109;31
2023/05/05 10:49:26;;;;;;;6.68;2.70;;;23.70;66.50;;;;;;2603623;54;20137;31
2023/05/05 10:52:07;;;;;;;4.03;2.30;;;23.60;68.40;;;;;;2621886;46;20037;31
2023/05/05 10:54:52;;;;;;;3.65;2.30;;;23.60;67.00;;;;;;2603729;54;21164;31
2023/05/05 10:57:30;;;;;;;4.15;2.20;;;23.60;68.00;;;;;;2603329;54;20141;31
2023/05/05 11:00:07;;;;;;;4.22;2.60;;;23.80;68.30;;;;;;2622035;46;20855;31
2023/05/05 11:02:46;;;;;;;3.42;2.33;;;23.90;68.90;;;;;;2603605;54;20913;31
2023/05/05 11:05:23;;;;;;;4.85;2.47;;;24.00;69.40;;;;;;2603256;54;20848;31
2023/05/05 11:07:59;;;;;;;;;;;24.10;66.00;;;;;;2603728;54;20121;31
2023/05/05 11:10:49;;;;;;;6.38;2.13;;;24.10;64.70;;;;;;2621979;46;19958;31
2023/05/05 11:13:28;;;;;;;7.53;2.42;;;24.10;67.10;;;;;;2603399;54;20863;31
2023/05/05 11:16:07;;;;;;;3.85;2.00;;;24.00;65.30;;;;;;2649856;39;21357;31
2023/05/05 11:18:43;;;;;;;6.43;2.35;;;24.10;64.80;;;;;;2603532;54;20880;31
2023/05/05 11:21:18;;;;;;;4.22;2.00;;;24.20;67.30;;;;;;2603231;54;20026;31
2023/05/05 11:23:54;;;;;;;6.07;2.27;;;24.20;65.70;;;;;;2603311;54;20894;31
2023/05/05 11:26:54;;;;;;;4.60;2.40;;;24.20;66.60;;;;;;2602602;54;20093;31
2023/05/05 11:29:30;;;;;;;7.50;2.40;;;24.20;67.30;;;;;;2621633;46;20069;31
2023/05/05 11:32:14;;;;;;;;;;;24.10;67.90;;;;;;2603447;54;19950;31
2023/05/05 11:34:55;;;;;;;6.57;2.15;;;24.10;68.70;;;;;;2621489;46;19934;31
2023/05/05 11:37:31;;;;;;;4.30;2.40;;;24.10;69.50;;;;;;2603302;54;20065;31
2023/05/05 11:40:16;;;;;;;4.80;2.90;;;24.10;68.70;;;;;;2603286;54;20055;31
2023/05/05 11:43:06;;;;;;;4.60;2.13;;;24.10;67.90;;;;;;2621766;46;20040;31
2023/05/05 11:45:43;;;;;;;3.50;2.30;;;24.00;70.60;;;;;;2621183;46;20261;31
2023/05/05 11:48:28;;;;;;;5.57;2.78;;;24.00;70.10;;;;;;2603161;54;20047;31
2023/05/05 11:51:05;;;;;;;6.00;2.33;;;23.80;69.00;;;;;;2627230;39;20351;31
2023/05/05 11:53:45;;;;;;;5.70;2.40;;;23.80;68.60;;;;;;2602418;54;20506;31
2023/05/05 11:56:24;;;;;;;3.88;2.22;;;23.70;67.90;;;;;;2603453;54;20031;31
2023/05/05 11:59:12;;;;;;;4.13;2.50;;;23.80;68.10;;;;;;2603248;54;20053;31
2023/05/05 12:01:47;;;;;;;7.70;2.30;;;23.70;67.70;;;;;;2603335;54;20141;31
2023/05/05 12:04:23;;;;;;;;;;;23.50;68.50;;;;;;2603541;54;20040;31
2023/05/05 12:07:02;;;;;;;3.95;1.65;;;23.50;69.10;;;;;;2603509;54;21088;31
2023/05/05 12:09:41;;;;;;;4.45;2.30;;;23.50;69.20;;;;;;2603031;54;20034;31
2023/05/05 12:12:21;;;;;;;3.40;1.80;;;23.40;68.20;;;;;;2603343;54;20031;31
2023/05/05 12:14:59;;;;;;;3.45;2.10;;;23.50;68.10;;;;;;2602360;54;20956;31
2023/05/05 12:17:44;;;;;;;5.20;1.83;;;23.40;67.50;;;;;;2602358;54;20093;31
2023/05/05 12:23:29;;;;;;;9.10;1.80;;;23.40;69.30;;;;;;2602300;54;20824;31
2023/05/05 12:26:07;;;;;;;4.97;2.22;;;23.20;67.80;;;;;;2621575;46;20073;31
2023/05/05 12:28:41;;;;;;;4.82;1.75;;;23.30;67.10;;;;;;2603226;54;20860;31
2023/05/05 12:31:38;;;;;;;4.67;2.47;;;23.20;68.50;;;;;;2602993;54;20030;31
2023/05/05 12:34:16;;;;;;;4.32;2.20;;;23.10;69.20;;;;;;2603240;54;20022;31
2023/05/05 12:37:00;;;;;;;6.28;1.85;;;23.00;68.80;;;;;;2603119;54;20097;31
2023/05/05 12:39:40;;;;;;;5.00;1.77;;;23.10;69.80;;;;;;2621655;46;20085;31
2023/05/05 12:48:21;;;;;;;4.32;1.75;;;22.80;68.80;;;;;;2603354;54;20041;31
2023/05/05 12:51:17;;;;;;;3.90;1.70;;;22.90;70.50;;;;;;2603104;54;20089;31
2023/05/05 12:54:05;;;;;;;2.70;1.80;;;23.00;70.30;;;;;;2603118;54;20088;31
2023/05/05 12:56:42;;;;;;;4.30;1.90;;;23.00;68.50;;;;;;2603090;54;20065;31
2023/05/05 12:59:31;;;;;;;6.90;2.17;;;23.00;68.30;;;;;;2602409;54;20760;31
2023/05/05 13:02:08;;;;;;;5.93;1.98;;;22.90;68.70;;;;;;2602868;54;20867;31
2023/05/05 13:04:55;;;;;;;3.85;1.50;;;22.90;68.60;;;;;;2602927;54;20758;31
2023/05/05 13:07:40;;;;;;;5.25;1.60;;;22.70;68.90;;;;;;2602727;54;20038;31
2023/05/05 13:10:23;;;;;;;2.70;1.48;;;22.70;70.50;;;;;;2602767;54;20732;31
2023/05/05 13:13:01;;;;;;;5.00;1.58;;;22.70;68.90;;;;;;2667218;39;20345;31
2023/05/05 13:15:41;;;;;;;3.67;1.52;;;22.70;69.70;;;;;;2602977;54;20803;31
2023/05/05 13:18:18;;;;;;;3.92;1.65;;;22.70;68.60;;;;;;2603020;54;20770;31
2023/05/05 13:20:54;;;;;;;4.10;2.08;;;22.60;69.40;;;;;;2602987;54;20031;31
2023/05/05 13:23:36;;;;;;;2.35;1.60;;;22.60;68.50;;;;;;2602897;54;20038;31
2023/05/05 13:26:12;;;;;;;2.83;1.80;;;22.70;69.50;;;;;;2603324;54;20017;31
2023/05/05 13:28:49;;;;;;;5.55;1.70;;;22.60;68.90;;;;;;2602976;54;20089;31
2023/05/05 13:31:28;;;;;;;2.22;1.35;;;22.60;68.90;;;;;;2602735;54;25129;31
2023/05/05 13:34:07;;;;;;;5.07;1.50;;;22.60;69.30;;;;;;2602822;54;20105;31
2023/05/05 13:39:22;;;;;;;3.40;1.65;;;22.60;70.50;;;;;;2603017;54;20073;31
2023/05/05 13:42:00;;;;;;;5.82;1.60;;;22.60;69.40;;;;;;2603097;54;19942;31
2023/05/05 13:44:36;;;;;;;5.80;2.15;;;22.50;69.30;;;;;;2603256;54;20022;31
2023/05/05 13:47:14;;;;;;;4.03;1.50;;;22.50;69.80;;;;;;2603168;54;20954;31
2023/05/05 13:49:51;;;;;;;5.20;1.50;;;22.50;70.40;;;;;;2602988;54;20263;31
2023/05/05 13:52:32;;;;;;;5.75;1.77;;;22.50;70.80;;;;;;2602812;54;20129;31
2023/05/05 13:55:12;;;;;;;4.10;1.80;;;22.60;70.90;;;;;;2602730;54;20033;31
2023/05/05 13:57:53;;;;;;;3.78;1.90;;;22.60;71.00;;;;;;2602786;54;20870;31
2023/05/05 14:00:29;;;;;;;3.30;1.70;;;22.60;71.30;;;;;;2601988;54;20058;31
2023/05/05 14:03:06;;;;;;;3.35;1.55;;;22.60;70.30;;;;;;2602969;54;20019;31
2023/05/05 14:05:45;;;;;;;2.58;1.42;;;22.50;70.90;;;;;;2601978;54;20046;31
2023/05/05 14:08:20;;;;;;;3.92;1.65;;;22.50;70.70;;;;;;2602701;54;20851;31
2023/05/05 14:11:00;;;;;;;2.97;1.85;;;22.40;68.70;;;;;;2602213;54;20993;31
2023/05/05 14:13:36;;;;;;;4.47;1.70;;;22.40;70.20;;;;;;2603738;54;20763;31
2023/05/05 14:16:14;;;;;;;4.55;1.60;;;22.50;69.70;;;;;;2603456;54;20085;31
2023/05/05 14:18:52;;;;;;;5.88;1.80;;;22.40;69.00;;;;;;2603568;54;21580;31
2023/05/05 14:21:27;;;;;;;3.45;1.50;;;22.40;69.40;;;;;;2603549;54;20030;31
2023/05/05 14:24:06;;;;;;;2.83;1.65;;;22.40;70.70;;;;;;2609241;39;21437;31
2023/05/05 14:26:40;;;;;;;9.85;1.88;;;22.40;70.70;;;;;;2621926;46;20042;31
2023/05/05 14:29:20;;;;;;;2.45;1.40;;;22.40;70.40;;;;;;2603613;54;20105;31
2023/05/05 14:31:56;;;;;;;5.07;1.60;;;22.40;69.60;;;;;;2603371;54;20023;31
2023/05/05 14:34:35;;;;;;;6.43;2.38;;;22.40;70.60;;;;;;2603684;54;20871;31
2023/05/05 14:37:12;;;;;;;3.40;1.75;;;22.40;70.20;;;;;;2621897;46;20030;31
2023/05/05 14:39:48;;;;;;;3.25;1.75;;;22.40;70.80;;;;;;2602644;54;20027;31
2023/05/05 14:42:30;;;;;;;3.90;1.40;;;22.30;71.50;;;;;;2621965;46;20081;31
2023/05/05 14:45:11;;;;;;;5.23;1.93;;;22.30;70.80;;;;;;2603296;54;20031;31
2023/05/05 14:47:48;;;;;;;3.92;1.50;;;22.30;70.50;;;;;;2603826;54;20130;31
2023/05/05 14:50:25;;;;;;;2.45;1.38;;;22.30;71.00;;;;;;2603592;54;20422;31
2023/05/05 14:53:02;;;;;;;3.55;1.80;;;22.30;70.20;;;;;;2603390;54;20821;31
2023/05/05 14:55:40;;;;;;;4.10;1.63;;;22.20;71.00;;;;;;2603444;54;20454;31
2023/05/05 14:58:22;;;;;;;3.67;1.70;;;22.20;71.10;;;;;;2603665;54;20892;31
2023/05/05 15:01:01;;;;;;;2.67;1.50;;;22.20;70.90;;;;;;2603160;54;20105;31
2023/05/05 15:03:36;;;;;;;3.75;1.30;;;22.20;70.20;;;;;;2602778;54;20030;31
2023/05/05 15:06:12;;;;;;;2.50;1.50;;;22.20;70.00;;;;;;2603441;54;20892;31
2023/05/05 15:08:48;;;;;;;2.30;1.60;;;22.10;69.60;;;;;;2603332;54;20030;31
2023/05/05 15:11:25;;;;;;;3.90;1.60;;;22.00;68.60;;;;;;2603234;54;20960;31
2023/05/05 15:14:00;;;;;;;3.47;1.65;;;22.10;70.50;;;;;;2603251;54;20050;31
2023/05/05 15:16:38;;;;;;;;;;;22.10;71.60;;;;;;2602768;54;20956;31
2023/05/05 15:19:16;;;;;;;4.28;1.58;;;22.10;72.10;;;;;;2603359;54;19934;31
2023/05/05 15:21:55;;;;;;;2.50;1.50;;;22.10;70.70;;;;;;2603433;54;20121;31
2023/05/05 15:24:33;;;;;;;2.20;1.30;;;22.00;71.10;;;;;;2603748;54;20027;31
2023/05/05 15:27:10;;;;;;;4.35;1.50;;;22.00;70.80;;;;;;2603475;54;20033;31
2023/05/05 15:29:48;;;;;;;3.13;1.20;;;22.00;70.00;;;;;;2621578;46;20022;31
2023/05/05 15:32:31;;;;;;;3.17;1.50;;;21.90;70.80;;;;;;2629444;39;20344;31
2023/05/05 15:35:11;;;;;;;2.65;1.40;;;21.80;69.20;;;;;;2612978;46;20026;31
2023/05/05 15:37:47;;;;;;;5.45;1.73;;;21.70;70.40;;;;;;2602543;54;20787;31
2023/05/05 15:40:22;;;;;;;;;;;21.60;71.80;;;;;;2602589;54;20937;31
2023/05/05 15:43:02;;;;;;;3.33;1.77;;;21.60;72.20;;;;;;2622017;46;19940;31
2023/05/05 15:45:40;;;;;;;8.88;2.03;;;21.50;72.30;;;;;;2603458;54;20030;31
2023/05/05 15:48:20;;;;;;;5.53;1.52;;;21.50;71.70;;;;;;2621888;46;20737;31
2023/05/05 15:50:56;;;;;;;3.30;1.40;;;21.60;70.60;;;;;;2621699;46;20073;31
2023/05/05 15:53:42;;;;;;;2.78;1.27;;;21.50;70.00;;;;;;2603405;54;20031;31
2023/05/05 15:56:21;;;;;;;5.35;2.00;;;21.60;70.30;;;;;;2603400;54;20050;31
2023/05/05 15:58:59;;;;;;;4.18;1.27;;;21.60;69.60;;;;;;2603320;54;20046;31
2023/05/05 16:01:37;;;;;;;4.22;1.42;;;21.60;69.20;;;;;;2603229;54;20871;31
2023/05/05 16:04:21;;;;;;;2.80;1.40;;;21.60;70.30;;;;;;2603303;54;20057;31
2023/05/05 16:06:58;;;;;;;3.15;1.48;;;21.50;70.40;;;;;;2603391;54;20049;31
2023/05/05 16:09:36;;;;;;;7.18;1.58;;;21.50;71.30;;;;;;2603057;54;19951;31
2023/05/05 16:12:13;;;;;;;2.40;1.52;;;21.50;72.40;;;;;;2621612;46;20117;31
2023/05/05 16:14:52;;;;;;;5.13;1.58;;;21.50;71.70;;;;;;2603158;54;20786;31
2023/05/05 16:17:32;;;;;;;4.63;1.80;;;21.50;71.70;;;;;;2603113;54;20078;31
2023/05/05 16:20:15;;;;;;;3.45;1.40;;;21.40;70.50;;;;;;2603112;54;20100;31
2023/05/05 16:22:53;;;;;;;5.53;1.58;;;21.30;70.80;;;;;;2602239;54;20050;31
2023/05/05 16:25:29;;;;;;;4.75;1.70;;;21.30;72.00;;;;;;2602954;54;20031;31
2023/05/05 16:28:05;;;;;;;6.47;1.70;;;21.20;73.20;;;;;;2603045;54;20031;31
2023/05/05 16:30:42;;;;;;;4.55;1.50;;;21.20;73.60;;;;;;2603243;54;20026;31
2023/05/05 16:33:19;;;;;;;3.83;1.50;;;21.20;73.90;;;;;;2621388;46;20026;31
2023/05/05 16:35:58;;;;;;;6.65;1.60;;;21.10;72.40;;;;;;2620958;47;20038;31